Date,TemperatureHighF,TemperatureAvgF,TemperatureLowF,DewpointHighF,DewpointAvgF,DewpointLowF,HumidityHigh,HumidityAvg,HumidityLow,PressureMaxIn,PressureMinIn,WindSpeedMaxMPH,WindSpeedAvgMPH,GustSpeedMaxMPH,PrecipitationSumIn
2013-1-1,74.3,66.2,49.2,59.0,56.7,47.5,95,73,57,30.22,30.01,19,3,19,0.00
2013-1-2,75.8,63.7,57.8,66.7,59.6,54.9,94,87,72,30.08,29.96,16,3,16,0.00
2013-1-3,60.5,58.2,49.0,59.1,56.2,47.6,95,93,87,30.24,30.05,17,5,17,0.08
2013-1-4,55.4,51.2,48.1,51.9,48.6,45.8,95,91,84,30.32,30.23,8,4,13,0.00
2013-1-5,57.8,51.8,43.7,53.4,48.0,40.7,92,87,78,30.35,30.26,8,4,15,0.00
2013-1-6,61.7,56.1,51.5,56.5,53.7,50.1,96,92,83,30.25,30.12,6,4,13,0.35
2013-1-7,60.2,55.0,48.6,55.3,50.9,44.5,94,86,81,30.29,30.18,14,7,20,0.01
2013-1-8,64.0,59.7,57.3,60.7,57.4,55.6,96,92,89,30.28,30.19,9,5,15,0.03
2013-1-9,65.0,60.7,58.5,63.8,59.6,57.4,98,96,94,30.34,30.24,5,3,12,0.00
2013-1-10,69.8,65.2,60.2,66.2,63.2,59.6,98,93,87,30.36,30.28,9,2,11,0.01
2013-1-11,77.0,66.0,61.1,67.2,64.0,59.7,98,93,66,30.28,30.17,13,3,14,0.01
2013-1-12,69.0,65.8,59.1,65.5,63.7,58.2,98,93,87,30.21,30.11,8,2,11,0.01
2013-1-13,72.1,66.0,62.3,65.9,63.2,61.2,96,91,78,30.18,30.08,10,3,13,0.01
2013-1-14,74.5,65.7,59.9,66.9,62.7,58.5,97,90,75,30.20,30.12,9,3,14,0.01
2013-1-15,73.3,66.7,61.7,67.5,63.8,60.5,96,91,80,30.16,30.07,7,3,14,0.00
2013-1-16,79.4,70.0,65.0,67.1,63.5,61.0,93,81,54,30.09,29.99,8,4,17,0.00
2013-1-17,75.4,61.5,43.6,64.1,54.4,34.5,92,78,61,30.13,29.88,22,6,27,0.00
2013-1-18,56.2,53.9,42.0,47.6,44.9,34.4,83,72,68,30.38,30.16,26,11,31,0.00
2013-1-19,56.8,55.9,55.7,53.9,53.5,53.2,93,92,88,30.24,30.22,12,5,13,0.00
2013-1-22,60.7,52.4,46.2,35.0,32.8,29.5,60,48,31,30.30,30.21,13,2,15,0.00
2013-1-23,56.5,45.9,39.2,43.6,34.7,32.1,81,65,51,30.42,30.28,8,2,13,0.00
2013-1-24,71.4,58.2,46.2,53.2,47.1,40.3,85,68,47,30.29,30.18,10,3,21,0.00
2013-1-25,65.2,58.2,53.6,57.7,54.3,51.6,93,87,74,30.32,30.18,12,5,16,0.00
2013-1-26,71.8,65.3,53.9,61.1,57.8,49.0,94,77,69,30.21,30.15,5,1,8,0.00
2013-1-28,65.8,63.1,60.5,63.6,60.5,57.4,94,91,85,30.38,30.27,12,3,12,0.00
2013-1-29,68.8,64.5,60.3,65.8,62.6,58.9,97,94,88,30.27,30.11,15,4,15,0.01
2013-1-30,74.6,66.6,59.5,66.5,62.7,54.3,96,88,69,30.11,29.79,26,7,31,0.07
2013-1-31,59.2,52.1,45.1,54.6,37.5,27.6,91,60,33,30.25,29.88,23,5,31,0.05
2013-2-1,63.4,50.8,41.4,38.0,33.3,30.0,77,54,32,30.33,30.23,20,4,20,0.00
2013-2-2,57.3,52.3,46.4,45.6,42.1,30.3,88,69,48,30.32,30.17,6,2,11,0.00
2013-2-3,65.0,53.0,44.9,44.0,36.1,28.9,91,57,26,30.18,30.04,10,3,16,0.00
2013-2-4,57.7,52.2,42.0,48.1,43.7,35.6,89,73,62,30.14,30.07,4,2,8,0.00
2013-2-5,65.3,56.5,46.1,53.8,46.4,39.7,90,71,39,30.10,30.00,4,1,10,0.00
2013-2-6,62.3,60.6,58.3,58.6,55.5,51.3,91,84,75,30.16,30.05,4,2,8,0.00
2013-2-7,68.6,64.7,60.9,64.2,61.8,58.3,95,90,84,30.11,29.82,14,3,20,0.02
2013-2-8,68.1,58.6,55.8,64.4,53.7,52.0,90,84,74,30.08,29.82,11,4,18,0.00
2013-2-9,62.1,59.6,48.9,53.7,49.6,44.2,92,70,57,30.27,30.18,18,8,18,0.00
2013-2-10,68.6,65.0,62.0,61.2,59.7,55.8,90,83,73,30.33,30.17,16,5,16,0.00
2013-2-11,77.3,67.5,62.4,64.3,62.3,59.9,93,84,62,30.19,30.07,19,5,19,0.00
2013-2-12,66.7,63.3,61.6,65.2,61.6,59.6,95,94,93,30.08,30.05,10,2,10,0.00
2013-2-13,75.4,69.3,66.2,69.5,56.7,49.8,87,65,53,29.91,29.78,12,4,16,0.22
2013-2-14,54.2,52.0,50.3,49.5,48.2,46.9,91,87,82,30.07,29.98,10,4,12,0.04
2013-2-15,58.4,54.3,45.1,49.1,46.4,42.7,92,75,64,30.10,29.99,13,3,13,0.00
2013-2-16,58.2,48.3,41.1,47.2,41.5,21.8,95,78,44,30.14,29.91,28,4,28,0.03
2013-2-17,51.6,41.4,33.5,24.8,17.9,7.6,60,41,18,30.36,30.14,20,5,24,0.00
2013-2-18,58.6,47.5,30.0,51.3,36.2,23.1,90,66,44,30.42,30.23,11,2,11,0.00
2013-2-19,77.3,64.4,53.2,60.4,52.9,45.6,92,68,43,30.24,30.00,27,6,27,0.00
2013-2-20,59.3,53.5,46.3,56.4,42.2,31.1,90,67,45,30.19,30.07,15,3,15,0.01
2013-2-21,63.0,52.9,44.1,60.6,47.6,41.9,92,83,62,30.16,30.06,7,2,9,0.00
2013-2-22,70.8,66.6,63.5,68.0,64.2,61.1,96,92,88,30.08,30.01,10,3,14,0.00
2013-2-23,80.9,71.1,65.4,67.3,65.8,63.6,95,84,59,30.00,29.89,18,6,27,0.00
2013-2-28,68.7,61.4,56.8,45.0,38.7,35.3,48,43,39,29.93,29.86,18,5,18,0.00
2013-3-1,58.1,51.7,47.5,37.8,35.5,33.2,62,54,44,30.00,29.90,15,5,16,0.00
2013-3-2,54.6,46.1,38.1,36.6,32.6,29.4,87,61,40,30.02,29.92,17,6,28,0.00
2013-3-3,44.7,41.3,37.5,31.5,29.4,26.8,76,63,50,30.05,29.99,15,6,23,0.00
2013-3-4,55.3,52.6,42.9,42.0,35.9,22.4,71,54,31,30.23,30.12,12,3,14,0.00
2013-3-5,75.0,60.3,41.3,56.8,44.7,35.9,86,60,27,30.19,29.88,26,6,26,0.00
2013-3-6,64.3,51.9,43.9,59.1,36.3,27.4,89,57,33,30.14,29.85,33,8,33,0.06
2013-3-7,55.2,46.4,37.7,44.3,38.4,31.1,92,74,63,30.24,30.13,13,4,13,0.00
2013-3-8,61.4,52.1,42.4,50.9,45.3,40.4,94,79,56,30.25,30.17,16,4,16,0.00
2013-3-9,63.5,53.2,47.0,52.1,46.5,44.0,91,79,57,30.29,30.19,15,4,18,0.00
2013-3-10,68.3,63.0,59.0,61.6,57.9,53.5,91,83,77,30.23,30.15,7,4,13,0.00
2013-3-11,68.8,64.8,61.1,62.1,60.2,58.2,90,85,76,30.15,29.92,14,5,16,0.00
2013-3-12,68.6,64.9,56.9,65.1,59.3,47.6,95,83,56,30.01,29.85,10,4,18,0.05
2013-3-13,67.3,57.8,48.7,47.0,39.5,32.3,73,52,30,30.18,30.01,15,7,19,0.00
2013-3-14,55.0,52.4,48.5,35.7,32.5,30.7,50,47,43,30.18,30.17,7,5,17,0.00
2013-3-15,61.9,59.4,46.7,46.9,39.7,27.9,72,48,33,30.28,30.14,13,5,13,0.00
2013-3-16,79.0,72.5,63.2,48.8,46.9,44.8,52,41,31,30.08,29.99,17,5,17,0.00
2013-3-17,74.9,60.3,52.4,60.0,46.5,43.2,84,61,34,30.12,30.00,12,3,20,0.00
2013-3-18,79.4,66.8,61.4,63.6,60.6,57.0,93,81,52,30.06,29.87,11,3,17,0.00
2013-3-19,79.6,67.6,61.2,62.8,59.7,57.1,90,77,52,29.99,29.89,16,4,21,0.00
2013-3-20,63.8,59.6,52.1,57.4,53.4,49.6,93,80,66,30.02,29.85,14,6,23,0.04
2013-3-21,67.2,59.2,46.7,48.7,30.3,22.6,93,37,20,29.96,29.85,18,4,18,0.01
2013-3-22,60.6,55.9,46.4,52.3,41.5,33.6,76,59,45,30.08,29.93,17,5,18,0.00
2013-3-23,68.9,62.0,57.0,65.5,59.7,52.4,97,92,76,30.02,29.79,21,3,22,1.57
2013-3-24,84.5,72.1,61.8,72.1,65.9,60.9,97,82,53,29.81,29.52,25,7,25,0.37
2013-3-25,68.9,59.0,50.6,62.1,45.7,27.2,83,63,25,30.01,29.60,21,7,26,0.00
2013-3-26,54.8,47.8,40.3,31.1,27.1,23.2,61,45,33,30.25,30.02,17,6,26,0.00
2013-3-27,53.7,45.6,36.8,39.7,33.6,29.3,85,63,48,30.31,30.22,9,4,16,0.00
2013-3-28,60.5,50.2,41.8,43.6,39.0,32.0,85,67,34,30.30,30.23,9,3,16,0.00
2013-3-29,64.9,55.8,45.5,49.9,44.5,38.0,90,68,39,30.33,30.23,8,3,13,0.00
2013-3-30,74.9,60.8,48.5,58.2,48.5,38.7,86,68,27,30.26,30.12,12,4,18,0.00
2013-3-31,79.0,64.7,56.5,53.3,49.6,43.7,78,60,37,30.14,30.01,13,5,21,0.00
2013-4-2,64.5,63.5,63.1,60.3,59.9,59.2,89,88,83,30.10,30.07,8,2,8,0.00
2013-4-3,70.4,64.1,59.1,64.7,60.8,56.4,94,89,82,30.11,30.03,13,4,23,0.16
2013-4-4,76.7,69.2,64.4,68.8,64.7,62.6,96,86,69,30.07,29.85,17,5,25,0.32
2013-4-5,68.4,58.2,54.2,64.1,55.8,51.8,95,92,86,30.02,29.82,10,5,18,0.20
2013-4-6,64.7,60.3,52.8,58.7,54.4,49.3,90,81,73,30.18,30.03,14,6,18,0.00
2013-4-7,73.3,65.9,60.8,65.7,61.8,58.8,94,87,77,30.21,30.10,7,2,10,0.00
2013-4-8,73.1,66.0,56.9,67.2,62.7,55.5,96,89,80,30.18,30.09,8,2,11,0.00
2013-4-9,74.1,68.4,64.1,68.6,65.6,62.9,96,91,83,30.21,30.09,4,2,10,0.01
2013-4-10,74.1,69.9,65.2,68.9,66.2,62.5,92,88,82,30.16,30.02,8,4,11,0.00
2013-4-11,75.8,71.1,68.9,70.5,68.1,66.5,95,90,83,30.01,29.82,25,8,25,0.00
2013-4-12,85.6,74.5,67.7,73.5,68.9,65.8,95,84,54,29.88,29.77,16,5,30,0.00
2013-4-13,73.3,68.3,63.9,67.1,57.0,48.2,87,68,48,30.02,29.87,8,4,16,0.00
2013-4-14,70.6,65.6,60.3,65.9,62.4,58.3,96,90,84,30.02,29.90,10,4,17,0.82
2013-4-15,80.2,68.0,63.1,67.8,64.5,62.2,97,90,56,30.13,29.86,11,4,18,0.00
2013-4-16,74.2,68.4,64.2,68.9,66.0,63.3,97,92,83,30.20,30.10,8,4,12,0.00
2013-4-17,71.5,68.9,66.4,67.8,66.6,65.1,96,93,88,30.19,30.12,9,4,14,0.01
2013-4-18,78.2,71.7,66.2,71.9,68.7,65.0,96,90,81,30.10,29.99,4,2,10,0.00
2013-4-19,76.6,73.5,71.6,72.1,70.5,68.3,96,90,86,30.02,29.88,14,6,31,0.38
2013-4-20,67.0,57.1,50.6,63.7,53.6,48.7,95,88,76,30.19,29.99,8,6,21,0.46
2013-4-21,67.5,64.6,60.7,63.1,59.2,53.8,92,83,76,30.21,30.11,25,12,27,0.00
2013-4-22,65.8,63.3,60.2,63.6,60.2,56.8,94,90,80,30.15,30.06,22,13,33,0.12
2013-4-23,66.4,64.0,61.8,58.9,57.7,56.2,87,80,72,30.18,30.07,13,7,27,0.00
2013-4-24,73.7,67.3,60.3,67.2,63.5,57.8,94,88,77,30.17,30.10,9,4,10,0.00
2013-4-25,79.0,70.7,61.3,69.4,65.3,59.9,95,84,64,30.20,30.11,8,2,11,0.00
2013-4-26,73.9,69.2,63.3,67.0,64.0,59.0,92,84,74,30.30,30.17,14,5,19,0.00
2013-4-27,74.3,69.9,66.8,66.8,65.1,63.2,90,85,75,30.27,30.17,13,6,16,0.00
2013-4-28,75.2,71.2,68.5,67.6,66.6,64.8,91,85,76,30.18,30.02,15,6,16,0.00
2013-4-29,76.3,70.3,65.7,68.9,66.2,63.5,95,87,73,30.03,29.92,10,3,21,0.40
2013-4-30,73.4,69.0,64.9,69.9,66.3,63.5,97,91,82,30.04,29.95,11,4,15,0.01
2013-5-1,72.6,69.2,66.8,68.4,66.0,63.1,95,90,85,30.07,29.99,20,10,28,0.00
2013-5-2,70.3,69.0,67.6,68.5,67.0,65.7,96,93,88,30.03,29.92,21,11,32,1.83
2013-5-3,70.6,68.7,67.2,66.0,65.0,63.0,93,88,78,29.93,29.84,24,14,33,0.96
2013-5-4,70.4,68.6,66.3,68.0,65.7,62.7,95,91,77,29.84,29.72,22,12,29,0.49
2013-5-5,76.7,68.7,60.2,68.4,58.2,49.9,95,73,39,29.88,29.71,14,4,26,0.11
2013-5-6,73.3,65.3,56.2,56.3,50.4,46.4,86,61,40,29.98,29.85,7,3,16,0.00
2013-5-7,76.8,67.3,57.3,59.2,55.1,50.9,84,66,47,30.01,29.91,16,4,21,0.00
2013-5-8,73.0,67.6,58.9,66.5,60.9,56.3,92,80,63,30.10,30.00,9,3,13,0.00
2013-5-9,81.1,70.9,63.8,69.3,64.9,59.6,93,82,48,30.14,30.07,11,4,14,0.00
2013-5-10,77.2,71.5,62.7,71.3,66.6,59.1,91,85,77,30.13,30.01,8,3,13,0.00
2013-5-11,88.5,75.5,69.1,71.5,67.9,65.4,92,79,52,30.05,29.93,7,2,18,0.41
2013-5-12,84.8,74.7,67.0,68.6,65.6,58.4,95,76,51,30.02,29.93,8,3,18,0.00
2013-5-13,77.4,69.1,60.0,58.9,51.8,40.8,85,57,27,30.14,30.00,12,3,18,0.00
2013-5-14,73.8,66.1,56.3,57.7,53.2,48.5,88,64,48,30.25,30.15,8,4,12,0.00
2013-5-15,78.7,69.5,58.9,63.9,58.6,54.9,88,70,46,30.23,30.09,11,4,17,0.00
2013-5-16,76.0,73.3,66.2,69.4,67.4,60.2,83,82,76,30.10,30.04,14,6,15,0.00
2013-5-17,79.8,72.8,64.9,70.3,67.1,62.2,92,82,60,30.12,30.04,13,4,13,0.00
2013-5-18,79.0,71.6,68.6,72.5,68.9,66.4,93,91,80,30.14,30.04,9,3,14,0.02
2013-5-19,78.5,74.2,70.7,72.9,70.8,68.3,93,89,83,30.10,30.02,12,6,17,0.02
2013-5-20,77.8,74.3,70.6,74.0,71.5,68.4,94,91,88,30.10,30.02,8,3,14,0.01
2013-5-21,78.4,74.6,70.4,73.7,70.9,69.2,96,89,75,30.07,29.97,10,4,19,0.00
2013-5-22,79.2,75.2,69.4,73.6,71.4,67.6,95,88,81,30.01,29.92,8,3,13,0.00
2013-5-23,80.8,76.0,70.3,72.4,70.5,68.5,94,84,70,29.98,29.91,11,3,14,0.02
2013-5-24,88.4,79.3,71.2,70.4,65.1,55.0,92,66,34,30.10,29.94,12,4,20,0.00
2013-5-25,75.8,74.2,69.5,67.3,59.1,55.3,88,60,51,30.22,30.11,16,6,20,0.00
2013-5-27,80.0,76.5,75.1,68.5,66.0,64.9,73,70,63,30.20,30.15,17,7,17,0.00
2013-5-28,80.3,76.8,73.9,69.7,66.8,64.5,80,71,66,30.20,30.13,17,7,20,0.00
2013-5-29,82.3,77.8,75.2,75.2,72.1,69.4,88,83,78,30.19,30.11,10,6,15,0.02
2013-5-31,81.8,81.0,80.5,73.9,73.6,73.3,79,78,77,30.13,30.11,15,8,15,0.00
2013-6-1,80.6,78.1,77.3,73.7,73.4,73.0,88,86,79,30.05,30.04,15,7,16,0.00
2013-6-5,83.3,77.9,75.4,73.4,72.1,71.1,91,83,69,30.02,29.96,13,4,14,0.01
2013-6-6,76.5,75.2,73.0,73.7,72.5,70.2,94,91,87,29.87,29.69,25,10,25,1.01
2013-6-7,87.2,80.2,76.7,74.8,71.8,69.1,85,76,59,29.87,29.83,17,3,17,0.04
2013-6-8,82.9,80.2,79.2,77.2,75.1,73.6,86,85,82,30.05,30.00,13,7,16,0.00
2013-6-11,89.9,87.9,83.9,78.2,76.5,75.6,83,70,63,30.03,30.01,12,4,12,0.00
2013-6-12,93.8,89.7,86.0,79.2,76.9,74.4,79,67,54,30.05,29.97,11,5,12,0.00
2013-6-13,96.0,85.0,81.6,79.0,76.2,73.8,84,75,49,29.88,29.84,10,2,17,0.03
2013-6-14,91.1,80.2,72.0,78.6,74.7,68.4,91,84,66,29.94,29.78,29,4,29,0.63
2013-6-15,83.7,79.4,78.5,74.4,71.1,69.2,87,76,67,30.09,29.94,19,7,19,0.01
2013-6-16,83.3,80.0,77.4,73.9,71.5,69.4,84,75,69,30.14,30.06,10,6,18,0.00
2013-6-17,85.0,81.0,77.8,77.8,76.0,73.7,90,85,79,30.09,29.97,12,5,18,0.00
2013-6-18,93.7,83.8,74.0,75.2,72.5,70.5,92,71,49,30.03,29.91,8,2,15,0.00
2013-6-21,78.8,78.7,78.7,73.2,73.1,72.7,83,83,82,30.11,30.10,0,0,0,0.00
2013-6-22,84.4,79.0,77.1,76.8,74.9,73.6,93,87,78,30.14,30.07,11,3,14,0.26
2013-6-25,86.0,82.8,80.4,76.6,75.5,74.1,85,79,71,30.16,30.06,15,6,15,0.00
2013-6-26,90.3,80.9,75.7,77.1,74.8,72.3,92,82,57,30.09,30.01,11,3,19,0.00
2013-6-27,88.7,79.1,73.0,78.5,74.3,70.2,91,85,67,30.03,29.89,10,4,25,0.44
2013-6-28,82.2,78.8,77.6,76.9,73.2,71.9,91,83,75,29.93,29.80,15,4,15,0.00
2013-6-29,86.6,81.8,75.9,76.5,74.0,70.9,92,78,67,29.82,29.74,28,4,28,0.22
2013-6-30,87.6,78.0,74.6,76.4,73.6,71.8,92,87,68,29.85,29.78,13,5,20,0.33
2013-7-1,83.8,75.5,71.9,75.8,72.3,70.1,95,90,75,30.02,29.83,18,5,28,1.48
2013-7-2,78.8,75.4,72.9,75.6,72.9,71.2,95,92,86,30.11,30.00,12,5,21,0.15
2013-7-3,79.9,76.4,74.6,76.1,73.9,72.1,94,92,88,30.14,30.08,7,4,14,0.00
2013-11-23,74.6,67.6,60.8,69.7,64.3,59.4,96,89,79,30.14,30.01,5,2,13,0.02
2013-11-24,64.6,57.7,53.9,60.3,49.9,43.4,88,75,67,30.36,30.08,14,11,30,0.00
2013-11-25,66.7,62.9,56.7,61.2,56.6,47.4,85,80,71,30.34,30.16,14,9,29,0.00
2013-11-26,71.4,67.1,65.6,70.2,65.0,61.0,96,93,84,30.12,29.71,10,5,21,0.65
2013-11-27,71.4,55.7,40.3,70.0,50.8,33.3,96,84,74,30.22,29.62,10,7,27,0.16
2013-11-28,54.7,44.7,35.0,45.9,38.6,29.9,88,79,69,30.41,30.23,8,6,18,0.00
2013-11-29,60.0,57.5,44.8,53.8,52.0,42.0,94,82,76,30.45,30.38,22,9,22,0.00
2013-11-30,59.8,57.7,54.8,58.1,55.6,52.9,94,93,84,30.39,30.23,27,10,27,0.00
2013-12-1,62.2,58.5,56.2,58.7,56.1,54.3,95,92,85,30.23,30.00,15,4,19,0.00
2013-12-2,61.2,56.5,53.2,56.7,53.9,50.5,96,91,82,30.00,29.84,10,2,10,0.00
2013-12-3,65.7,59.5,52.6,62.0,57.0,50.3,96,92,85,29.98,29.89,10,2,12,0.01
2013-12-4,73.5,65.1,59.5,69.1,62.3,57.0,96,91,79,30.11,29.96,10,2,10,0.00
2013-12-5,77.3,67.0,60.4,71.3,64.3,59.3,97,91,75,30.18,30.08,16,3,16,0.01
2013-12-6,76.0,68.4,63.0,71.8,65.8,61.0,96,92,81,30.17,30.10,16,3,16,0.00
2013-12-7,83.6,70.2,65.7,72.6,66.9,63.6,96,90,63,30.23,30.15,16,3,16,0.00
2013-12-8,66.4,63.6,62.2,64.6,62.4,61.0,97,96,94,30.27,30.16,12,4,12,0.00
2013-12-9,77.0,67.7,60.9,72.7,65.8,60.3,98,94,81,30.19,30.08,15,3,15,0.00
2013-12-10,80.2,67.8,54.3,69.9,63.9,46.3,96,88,67,30.26,30.03,21,5,21,0.20
2013-12-11,64.0,59.3,52.9,59.9,54.7,45.9,91,85,74,30.30,30.23,19,8,21,0.00
2013-12-12,59.7,56.2,52.0,50.0,43.9,34.5,78,64,44,30.38,30.25,16,6,16,0.00
2013-12-13,64.4,59.1,53.4,58.2,53.1,45.7,94,81,68,30.34,30.15,15,5,18,0.00
2013-12-14,70.7,65.3,57.9,68.6,63.4,56.2,96,94,89,30.15,29.88,16,4,23,0.31
2013-12-15,67.0,59.4,48.2,65.5,56.2,42.6,96,89,79,30.17,29.85,18,4,18,0.34
2013-12-16,55.2,46.4,38.3,47.0,41.8,35.3,92,84,71,30.27,30.16,14,3,14,0.00
2013-12-17,63.6,51.3,43.0,47.4,43.3,39.0,93,76,46,30.28,30.18,11,2,11,0.00
2013-12-18,60.9,53.1,46.7,43.6,40.6,30.6,86,64,34,30.31,30.19,19,4,19,0.00
2013-12-19,64.0,56.8,45.7,57.8,51.0,41.0,94,81,58,30.32,30.22,11,3,11,0.00
2013-12-20,68.0,60.5,50.7,63.8,58.1,49.2,96,92,84,30.24,30.15,9,1,9,0.01
2013-12-21,70.1,66.3,62.3,66.9,64.3,60.3,97,93,88,30.16,30.05,18,4,18,0.00
2013-12-22,81.0,69.9,65.7,71.6,67.3,64.5,98,92,69,30.14,30.07,27,5,27,0.01
2013-12-23,82.5,72.1,61.5,71.2,67.8,59.0,96,87,66,30.15,30.05,19,4,20,0.03
2013-12-24,61.3,54.1,46.3,59.0,44.7,35.9,93,72,42,30.32,30.12,18,5,18,0.01
2013-12-25,61.3,53.7,42.0,55.6,49.5,36.8,94,86,63,30.31,30.25,26,9,26,0.00
2013-12-26,57.3,53.7,50.2,55.6,50.5,47.9,94,89,84,30.30,30.19,14,6,19,0.00
2013-12-27,59.6,57.2,55.2,56.3,54.3,52.2,92,90,84,30.33,30.23,20,8,20,0.00
2013-12-28,64.7,61.6,59.4,63.4,59.5,55.0,96,93,85,30.30,30.00,14,4,14,0.10
2013-12-29,72.3,66.7,58.6,70.0,64.8,55.9,98,93,89,30.01,29.88,16,4,16,0.53
2013-12-30,61.2,54.8,49.1,56.0,50.6,46.5,93,86,66,30.21,30.00,15,3,15,0.00
2013-12-31,61.2,56.0,53.9,52.1,50.4,48.4,93,82,68,30.34,30.20,11,3,11,0.00
2014-1-1,59.6,57.3,55.0,57.9,54.9,50.4,97,92,83,30.32,30.08,12,4,12,0.66
2014-1-2,63.9,59.4,53.3,63.0,58.3,44.2,98,96,83,30.08,29.75,29,4,29,1.25